createdAt,value
2018-01-04T00:00:30.013Z,12.20
2018-01-04T00:02:57.514Z,9.18
2018-01-04T00:05:25.041Z,11.75
2018-01-04T00:07:52.553Z,7.75
2018-01-04T00:10:20.078Z,12.13
2018-01-04T00:12:48.346Z,10.15
2018-01-04T00:15:16.650Z,5.40
2018-01-04T00:17:44.148Z,16.00
2018-01-04T00:20:11.649Z,4.60
2018-01-04T00:22:39.944Z,7.25
2018-01-04T00:25:07.445Z,11.05
2018-01-04T00:27:34.985Z,7.60
2018-01-04T00:30:02.497Z,6.62
2018-01-04T00:32:30.009Z,7.85
2018-01-04T00:34:57.533Z,22.37
2018-01-04T00:37:25.802Z,6.70
2018-01-04T00:39:54.090Z,5.70
2018-01-04T00:42:22.364Z,7.28
2018-01-04T00:44:50.644Z,8.98
2018-01-04T00:47:18.917Z,4.22
2018-01-04T00:49:47.178Z,8.73
2018-01-04T00:52:14.694Z,7.53
2018-01-04T00:54:42.180Z,6.18
2018-01-04T00:57:09.681Z,10.00
2018-01-04T00:59:37.202Z,10.80
2018-01-04T01:02:04.701Z,7.03
2018-01-04T01:04:32.209Z,4.18
2018-01-04T01:06:59.707Z,9.00
2018-01-04T01:09:27.205Z,8.07
2018-01-04T01:11:54.725Z,9.35
2018-01-04T01:14:22.997Z,11.02
2018-01-04T01:16:51.282Z,7.30
2018-01-04T01:19:19.559Z,9.68
2018-01-04T01:21:47.820Z,12.07
2018-01-04T01:24:15.343Z,4.87
2018-01-04T01:26:43.615Z,20.05
2018-01-04T01:29:11.125Z,14.02
2018-01-04T01:31:39.431Z,8.25
2018-01-04T01:34:06.937Z,10.27
2018-01-04T01:36:34.455Z,14.60
2018-01-04T01:39:01.990Z,12.37
2018-01-04T01:41:30.252Z,8.43
2018-01-04T01:43:57.779Z,8.13
2018-01-04T01:46:25.286Z,9.73
2018-01-04T01:49:05.530Z,12.30
2018-01-04T01:51:33.026Z,8.18
2018-01-04T01:54:00.760Z,11.80
2018-01-04T01:56:29.048Z,9.23
2018-01-04T01:58:57.316Z,12.15
2018-01-04T02:01:25.597Z,9.85
2018-01-04T02:03:53.104Z,7.62
2018-01-04T02:06:20.606Z,9.20
2018-01-04T02:08:48.885Z,7.18
2018-01-04T02:11:16.384Z,16.12
2018-01-04T02:13:43.881Z,8.15
2018-01-04T02:16:21.572Z,9.95
2018-01-04T02:19:00.974Z,6.55
2018-01-04T02:21:40.437Z,3.15
2018-01-04T02:24:19.680Z,6.00
2018-01-04T02:26:59.137Z,8.00
2018-01-04T02:29:38.438Z,6.22
2018-01-04T02:32:17.866Z,4.30
2018-01-04T02:34:57.130Z,9.98
2018-01-04T02:37:36.437Z,3.70
2018-01-04T02:40:15.906Z,8.63
2018-01-04T02:42:55.233Z,7.32
2018-01-04T02:45:47.637Z,6.20
2018-01-04T02:48:15.157Z,17.37
2018-01-04T02:50:42.650Z,11.85
2018-01-04T02:53:10.910Z,7.90
2018-01-04T02:55:39.204Z,7.60
2018-01-04T02:58:06.706Z,9.80
2018-01-04T03:00:34.213Z,10.27
2018-01-04T03:03:02.508Z,11.88
2018-01-04T03:05:30.033Z,13.18
2018-01-04T03:07:57.528Z,12.48
2018-01-04T03:10:25.059Z,11.02
2018-01-04T03:12:52.562Z,8.27
2018-01-04T03:15:20.086Z,11.20
2018-01-04T03:17:48.360Z,8.55
2018-01-04T03:20:16.636Z,16.60
2018-01-04T03:25:58.368Z,14.27
2018-01-04T03:28:32.250Z,8.43
2018-01-04T03:31:05.482Z,10.32
2018-01-04T03:33:38.635Z,14.00
2018-01-04T03:36:11.757Z,17.35
2018-01-04T03:38:45.744Z,11.73
2018-01-04T03:41:18.917Z,11.02
2018-01-04T03:43:52.093Z,10.27
2018-01-04T03:46:25.362Z,7.95
2018-01-04T03:48:58.564Z,6.65
2018-01-04T03:51:31.812Z,8.20
2018-01-04T03:54:05.017Z,9.88
2018-01-04T03:56:39.016Z,8.38
2018-01-04T03:59:12.300Z,13.60
2018-01-04T04:01:45.624Z,5.43
2018-01-04T04:04:19.638Z,5.18
2018-01-04T04:09:25.978Z,3.90
2018-01-04T04:11:53.496Z,4.70
2018-01-04T04:14:20.980Z,4.35
2018-01-04T04:16:48.688Z,5.70
2018-01-04T04:19:16.971Z,4.28
2018-01-04T04:21:45.227Z,3.47
2018-01-04T04:24:12.734Z,4.43
2018-01-04T04:26:40.223Z,1.70
2018-01-04T04:29:07.735Z,2.25
2018-01-04T04:31:35.991Z,2.78
2018-01-04T04:34:03.493Z,1.80
2018-01-04T04:36:31.019Z,1.27
2018-01-04T04:38:59.276Z,1.00
2018-01-04T04:41:26.793Z,3.12
2018-01-04T04:43:54.292Z,1.48
2018-01-04T04:46:21.812Z,1.62
2018-01-04T04:48:49.308Z,4.90
2018-01-04T04:51:16.804Z,1.08
2018-01-04T04:53:44.327Z,1.33
2018-01-04T04:56:11.833Z,1.60
2018-01-04T04:58:39.375Z,0.70
2018-01-04T05:01:07.848Z,1.83
2018-01-04T05:03:35.336Z,1.20
2018-01-04T05:06:02.863Z,0.90
2018-01-04T05:08:30.362Z,1.40
2018-01-04T05:10:57.876Z,0.75
2018-01-04T05:13:25.368Z,1.00
2018-01-04T05:15:53.628Z,0.85
2018-01-04T05:18:21.912Z,0.93
2018-01-04T05:20:49.431Z,2.15
2018-01-04T05:23:16.965Z,0.95
2018-01-04T05:25:44.473Z,1.92
2018-01-04T05:28:12.764Z,3.03
2018-01-04T05:30:41.027Z,1.33
2018-01-04T05:33:08.524Z,1.27
2018-01-04T05:35:36.041Z,1.00
2018-01-04T05:38:03.542Z,0.80
2018-01-04T05:40:31.062Z,0.77
2018-01-04T05:42:58.575Z,0.80
2018-01-04T05:45:26.074Z,0.70
2018-01-04T05:47:53.597Z,1.60
2018-01-04T05:50:21.093Z,3.75
2018-01-04T05:52:48.604Z,1.02
2018-01-04T05:55:16.106Z,1.95
2018-01-04T05:57:43.609Z,5.43
2018-01-04T06:00:11.117Z,2.05
2018-01-04T06:02:38.621Z,1.17
2018-01-04T06:05:06.150Z,0.90
2018-01-04T06:07:33.656Z,0.70
2018-01-04T06:10:01.153Z,2.45
2018-01-04T06:12:28.683Z,1.52
2018-01-04T06:14:56.183Z,1.00
2018-01-04T06:17:23.708Z,1.60
2018-01-04T06:19:51.212Z,0.70
2018-01-04T06:22:18.761Z,1.00
2018-01-04T06:24:46.300Z,1.00
2018-01-04T06:27:13.807Z,1.33
2018-01-04T06:29:42.097Z,1.00
2018-01-04T06:32:09.592Z,1.08
2018-01-04T06:34:37.106Z,1.00
2018-01-04T06:37:05.393Z,2.55
2018-01-04T06:39:32.905Z,1.92
2018-01-04T06:42:00.421Z,0.90
2018-01-04T06:44:27.928Z,1.55
2018-01-04T06:46:56.411Z,1.00
2018-01-04T06:49:23.945Z,1.50
2018-01-04T06:51:51.456Z,2.08
2018-01-04T06:54:19.856Z,1.20
2018-01-04T06:56:47.385Z,0.90
2018-01-04T06:59:15.019Z,1.55
2018-01-04T07:01:42.552Z,0.90
2018-01-04T07:04:10.064Z,1.55
2018-01-04T07:06:37.612Z,0.90
2018-01-04T07:09:05.118Z,0.93
2018-01-04T07:11:32.622Z,2.08
2018-01-04T07:14:00.138Z,1.05
2018-01-04T07:16:27.654Z,1.23
2018-01-04T07:18:55.194Z,0.60
2018-01-04T07:21:22.685Z,1.15
2018-01-04T07:23:50.176Z,0.90
2018-01-04T07:26:17.702Z,0.95
2018-01-04T07:28:52.296Z,0.93
2018-01-04T07:31:19.810Z,0.93
2018-01-04T07:33:48.077Z,0.60
2018-01-04T07:36:16.377Z,0.90
2018-01-04T07:38:44.830Z,1.23
2018-01-04T07:41:12.326Z,0.70
2018-01-04T07:43:39.849Z,1.42
2018-01-04T07:46:07.357Z,0.95
2018-01-04T07:48:35.888Z,0.70
2018-01-04T07:51:03.402Z,1.10
2018-01-04T07:53:30.913Z,0.70
2018-01-04T07:55:59.209Z,2.25
2018-01-04T07:58:26.709Z,0.80
2018-01-04T08:00:54.267Z,0.65
2018-01-04T08:03:21.748Z,0.77
2018-01-04T08:05:49.276Z,1.92
2018-01-04T08:08:16.777Z,1.10
2018-01-04T08:10:44.277Z,1.30
2018-01-04T08:13:11.808Z,1.02
2018-01-04T08:15:40.094Z,1.92
2018-01-04T08:18:08.404Z,0.90
2018-01-04T08:20:35.906Z,0.90
2018-01-04T08:23:03.401Z,1.50
2018-01-04T08:25:30.917Z,1.50
2018-01-04T08:27:58.422Z,1.55
2018-01-04T08:30:25.945Z,1.60
2018-01-04T08:32:53.455Z,1.77
2018-01-04T08:35:20.968Z,1.10
2018-01-04T08:37:48.492Z,1.00
2018-01-04T08:40:15.990Z,0.80
2018-01-04T08:42:43.529Z,1.10
2018-01-04T08:45:11.037Z,1.48
2018-01-04T08:47:38.535Z,1.23
2018-01-04T08:50:06.052Z,1.17
2018-01-04T08:52:33.575Z,3.20
2018-01-04T08:55:01.097Z,2.00
2018-01-04T08:57:28.605Z,2.03
2018-01-04T08:59:56.109Z,0.80
2018-01-04T09:02:23.638Z,1.67
2018-01-04T09:04:51.916Z,1.12
2018-01-04T09:07:20.204Z,2.10
2018-01-04T09:09:47.704Z,1.00
2018-01-04T09:12:15.225Z,1.10
2018-01-04T09:14:42.758Z,1.15
2018-01-04T09:17:10.253Z,1.20
2018-01-04T09:19:37.786Z,0.80
2018-01-04T09:22:06.062Z,2.92
2018-01-04T09:24:34.352Z,1.45
2018-01-04T09:27:02.623Z,3.42
2018-01-04T09:29:30.888Z,5.00
2018-01-04T09:31:58.431Z,3.17
2018-01-04T09:34:25.934Z,6.95
2018-01-04T09:36:53.464Z,2.55
2018-01-04T09:39:20.982Z,2.85
2018-01-04T09:41:48.709Z,1.30
2018-01-04T09:44:17.000Z,5.62
2018-01-04T09:46:44.511Z,2.75
2018-01-04T09:49:12.029Z,1.40
2018-01-04T09:51:39.525Z,1.27
2018-01-04T09:54:07.029Z,4.90
2018-01-04T09:56:35.315Z,1.40
2018-01-04T09:59:02.825Z,1.62
2018-01-04T10:01:30.347Z,3.20
2018-01-04T10:03:57.862Z,2.10
2018-01-04T10:06:25.369Z,1.60
2018-01-04T10:08:52.885Z,2.97
2018-01-04T10:11:20.389Z,4.00
2018-01-04T10:13:47.906Z,4.32
2018-01-04T10:16:16.175Z,1.42
2018-01-04T10:18:43.686Z,1.10
2018-01-04T10:21:11.209Z,1.17
2018-01-04T10:23:39.476Z,1.30
2018-01-04T10:26:06.996Z,1.33
2018-01-04T10:28:34.499Z,1.90
2018-01-04T10:31:02.766Z,2.85
2018-01-04T10:33:30.290Z,4.40
2018-01-04T10:35:57.800Z,2.97
2018-01-04T10:38:26.081Z,2.03
2018-01-04T10:40:54.424Z,2.17
2018-01-04T10:43:21.949Z,3.05
2018-01-04T10:45:50.215Z,2.28
2018-01-04T10:48:17.736Z,5.65
2018-01-04T10:50:45.295Z,2.05
2018-01-04T10:53:12.807Z,2.33
2018-01-04T10:55:40.300Z,2.45
2018-01-04T10:58:07.819Z,2.35
2018-01-04T11:00:35.322Z,5.50
2018-01-04T11:03:02.864Z,4.72
2018-01-04T11:05:30.375Z,3.60
2018-01-04T11:07:58.693Z,1.98
2018-01-04T11:10:26.191Z,4.80
2018-01-04T11:12:53.708Z,2.60
2018-01-04T11:15:21.229Z,1.85
2018-01-04T11:17:49.513Z,1.35
2018-01-04T11:20:17.808Z,1.37
2018-01-04T11:22:45.325Z,1.65
2018-01-04T11:25:12.875Z,2.50
2018-01-04T11:27:40.373Z,1.58
2018-01-04T11:30:07.869Z,2.97
2018-01-04T11:32:35.388Z,1.90
2018-01-04T11:35:03.654Z,2.80
2018-01-04T11:37:31.960Z,1.35
2018-01-04T11:39:59.725Z,2.62
2018-01-04T11:42:27.240Z,3.20
2018-01-04T11:44:54.757Z,1.58
2018-01-04T11:47:22.279Z,1.90
2018-01-04T11:49:49.809Z,1.25
2018-01-04T11:52:17.343Z,2.97
2018-01-04T11:54:44.849Z,1.60
2018-01-04T11:57:12.361Z,3.20
2018-01-04T11:59:39.882Z,1.35
2018-01-04T12:02:08.166Z,2.55
2018-01-04T12:04:36.437Z,2.53
2018-01-04T12:07:04.841Z,2.03
2018-01-04T12:09:32.337Z,2.55
2018-01-04T12:11:59.869Z,1.40
2018-01-04T12:14:28.157Z,5.32
2018-01-04T12:16:55.708Z,1.50
2018-01-04T12:19:23.241Z,2.53
2018-01-04T12:21:50.777Z,2.35
2018-01-04T12:24:18.296Z,1.65
2018-01-04T12:26:45.821Z,1.45
2018-01-04T12:29:14.136Z,3.35
2018-01-04T12:31:41.641Z,5.82
2018-01-04T12:34:09.945Z,1.98
2018-01-04T12:36:37.453Z,1.70
2018-01-04T12:39:04.991Z,5.57
2018-01-04T12:41:32.501Z,1.75
2018-01-04T12:44:00.801Z,1.90
2018-01-04T12:46:28.324Z,2.85
2018-01-04T12:48:55.848Z,6.07
2018-01-04T12:51:23.389Z,2.40
2018-01-04T12:53:50.886Z,1.52
2018-01-04T12:56:18.393Z,2.17
2018-01-04T12:58:45.926Z,2.33
2018-01-04T13:01:13.425Z,1.37
2018-01-04T13:03:40.945Z,1.90
2018-01-04T13:06:08.448Z,1.67
2018-01-04T13:08:36.012Z,1.70
2018-01-04T13:11:03.550Z,2.28
2018-01-04T13:13:31.057Z,1.60
2018-01-04T13:15:58.593Z,1.62
2018-01-04T13:18:31.746Z,2.08
2018-01-04T13:20:59.307Z,2.75
2018-01-04T13:23:27.597Z,2.85
2018-01-04T13:25:55.108Z,4.93
2018-01-04T13:28:25.869Z,2.35
2018-01-04T13:30:53.380Z,1.80
2018-01-04T13:33:20.910Z,4.30
2018-01-04T13:35:49.178Z,3.50
2018-01-04T13:38:17.464Z,1.45
2018-01-04T13:40:45.721Z,2.20
2018-01-04T13:43:13.260Z,1.75
2018-01-04T13:45:40.782Z,2.75
2018-01-04T13:48:08.284Z,2.67
2018-01-04T13:50:36.803Z,3.15
2018-01-04T13:53:05.077Z,2.05
2018-01-04T13:55:33.380Z,2.87
2018-01-04T13:58:02.162Z,2.28
2018-01-04T14:00:29.898Z,2.87
2018-01-04T14:02:57.462Z,1.65
2018-01-04T14:05:26.336Z,2.40
2018-01-04T14:07:54.637Z,2.60
2018-01-04T14:10:22.910Z,2.80
2018-01-04T14:12:51.189Z,1.50
2018-01-04T14:15:18.703Z,1.45
2018-01-04T14:17:46.208Z,1.75
2018-01-04T14:20:14.501Z,1.62
2018-01-04T14:22:42.007Z,3.10
2018-01-04T14:25:09.542Z,2.30
2018-01-04T14:27:37.329Z,3.92
2018-01-04T14:30:06.859Z,1.70
2018-01-04T14:32:34.386Z,4.20
2018-01-04T14:35:01.882Z,2.25
2018-01-04T14:37:29.414Z,3.25
2018-01-04T14:39:56.917Z,4.47
2018-01-04T14:42:24.462Z,4.70
2018-01-04T14:44:51.998Z,2.25
2018-01-04T14:47:19.502Z,3.17
2018-01-04T14:49:47.793Z,2.80
2018-01-04T14:52:15.304Z,1.85
2018-01-04T14:54:42.828Z,5.20
2018-01-04T14:57:10.349Z,3.05
2018-01-04T14:59:37.885Z,2.60
2018-01-04T15:02:05.416Z,2.45
2018-01-04T15:04:32.943Z,3.08
2018-01-04T15:07:00.476Z,3.92
2018-01-04T15:09:27.972Z,3.30
2018-01-04T15:11:55.487Z,6.80
2018-01-04T15:14:23.788Z,3.45
2018-01-04T15:16:52.053Z,2.55
2018-01-04T15:19:20.346Z,2.53
2018-01-04T15:21:48.613Z,2.00
2018-01-04T15:24:16.917Z,3.37
2018-01-04T15:26:44.433Z,4.87
2018-01-04T15:29:11.942Z,5.75
2018-01-04T15:31:39.464Z,2.80
2018-01-04T15:34:07.745Z,2.45
2018-01-04T15:36:36.050Z,2.95
2018-01-04T15:39:03.559Z,2.90
2018-01-04T15:41:31.070Z,2.05
2018-01-04T15:43:58.593Z,4.32
2018-01-04T15:46:26.098Z,1.55
2018-01-04T15:48:53.620Z,1.70
2018-01-04T15:51:21.886Z,3.28
2018-01-04T15:53:49.391Z,3.80
2018-01-04T15:56:16.921Z,3.83
2018-01-04T15:58:45.213Z,2.83
2018-01-04T16:01:12.744Z,1.00
2018-01-04T16:03:40.265Z,1.33
2018-01-04T16:06:07.772Z,1.05
2018-01-04T16:08:36.063Z,3.78
2018-01-04T16:11:03.577Z,3.12
2018-01-04T16:13:31.108Z,3.22
2018-01-04T16:15:58.618Z,1.62
2018-01-04T16:18:26.126Z,4.00
2018-01-04T16:20:53.657Z,1.52
2018-01-04T16:23:21.931Z,2.45
2018-01-04T16:25:50.216Z,1.95
2018-01-04T16:28:18.521Z,1.25
2018-01-04T16:30:46.021Z,1.77
2018-01-04T16:33:13.555Z,3.05
2018-01-04T16:35:41.048Z,1.35
2018-01-04T16:38:08.577Z,1.95
2018-01-04T16:40:36.092Z,1.10
2018-01-04T16:43:04.359Z,2.65
2018-01-04T16:45:32.644Z,1.00
2018-01-04T16:48:00.914Z,4.30
2018-01-04T16:50:29.202Z,3.60
2018-01-04T16:52:56.705Z,2.28
2018-01-04T16:55:24.217Z,2.72
2018-01-04T16:57:52.514Z,1.20
2018-01-04T17:00:20.025Z,1.83
2018-01-04T17:02:47.556Z,4.65
2018-01-04T17:05:15.065Z,1.10
2018-01-04T17:07:43.329Z,1.98
2018-01-04T17:10:10.848Z,2.92
2018-01-04T17:12:38.358Z,2.97
2018-01-04T17:15:06.645Z,1.70
2018-01-04T17:17:34.917Z,1.45
2018-01-04T17:20:03.222Z,1.10
2018-01-04T17:22:30.732Z,1.20
2018-01-04T17:24:58.242Z,1.90
2018-01-04T17:27:25.770Z,1.35
2018-01-04T17:29:54.083Z,1.10
2018-01-04T17:32:21.590Z,1.10
2018-01-04T17:34:49.106Z,2.47
2018-01-04T17:37:16.634Z,1.90
2018-01-04T17:39:44.909Z,2.22
2018-01-04T17:42:13.196Z,1.30
2018-01-04T17:44:41.474Z,1.92
2018-01-04T17:47:09.736Z,2.17
2018-01-04T17:49:38.038Z,1.42
2018-01-04T17:52:05.596Z,2.37
2018-01-04T17:54:33.120Z,1.10
2018-01-04T17:57:00.633Z,1.00
2018-01-04T17:59:28.929Z,0.95
2018-01-04T18:01:56.811Z,1.20
2018-01-04T18:04:24.325Z,2.00
2018-01-04T18:06:51.847Z,1.00
2018-01-04T18:09:19.382Z,1.35
2018-01-04T18:11:46.915Z,1.10
2018-01-04T18:14:14.441Z,3.87
2018-01-04T18:16:42.719Z,1.30
2018-01-04T18:19:11.015Z,1.48
2018-01-04T18:21:38.544Z,1.35
2018-01-04T18:24:06.838Z,1.65
2018-01-04T18:26:34.352Z,1.10
2018-01-04T18:29:01.882Z,1.33
2018-01-04T18:31:29.422Z,10.50
2018-01-04T18:33:57.695Z,1.17
2018-01-04T18:36:25.984Z,9.48
2018-01-04T18:38:53.485Z,3.17
2018-01-04T18:41:21.996Z,5.75
2018-01-04T18:43:50.586Z,22.00
2018-01-04T18:46:18.874Z,34.63
2018-01-04T18:48:47.188Z,1.73
2018-01-04T18:51:14.703Z,5.87
2018-01-04T18:53:42.206Z,5.15
2018-01-04T18:56:09.856Z,2.90
2018-01-04T18:58:37.374Z,1.35
2018-01-04T19:01:04.914Z,1.95
2018-01-04T19:03:32.430Z,2.20
2018-01-04T19:05:59.988Z,5.87
2018-01-04T19:08:27.518Z,1.70
2018-01-04T19:10:55.805Z,2.72
2018-01-04T19:13:24.097Z,2.50
2018-01-04T19:15:53.201Z,6.68
2018-01-04T19:18:20.735Z,2.35
2018-01-04T19:20:49.025Z,5.15
2018-01-04T19:23:16.534Z,1.48
2018-01-04T19:25:44.079Z,7.90
2018-01-04T19:28:11.603Z,5.07
2018-01-04T19:30:40.934Z,1.15
2018-01-04T19:33:08.485Z,2.35
2018-01-04T19:35:36.042Z,2.53
2018-01-04T19:38:03.619Z,0.90
2018-01-04T19:40:31.138Z,1.45
2018-01-04T19:42:59.450Z,2.65
2018-01-04T19:45:26.997Z,1.30
2018-01-04T19:47:55.470Z,1.33
2018-01-04T19:50:23.756Z,1.60
2018-01-04T19:52:52.856Z,1.30
2018-01-04T19:55:20.397Z,1.30
2018-01-04T19:57:48.706Z,1.00
2018-01-04T20:00:23.278Z,1.40
2018-01-04T20:02:52.804Z,1.55
2018-01-04T20:05:22.854Z,1.08
2018-01-04T20:07:52.355Z,0.88
2018-01-04T20:10:19.856Z,1.35
2018-01-04T20:12:47.381Z,0.82
2018-01-04T20:15:14.894Z,0.70
2018-01-04T20:17:42.430Z,1.12
2018-01-04T20:20:09.946Z,1.20
2018-01-04T20:22:37.477Z,1.42
2018-01-04T20:25:05.006Z,1.00
2018-01-04T20:27:32.563Z,3.00
2018-01-04T20:30:00.083Z,4.07
2018-01-04T20:32:27.588Z,0.70
2018-01-04T20:34:55.121Z,1.00
2018-01-04T20:37:22.637Z,1.08
2018-01-04T20:39:50.141Z,2.25
2018-01-04T20:42:17.677Z,0.95
2018-01-04T20:44:45.950Z,4.05
2018-01-04T20:47:15.028Z,1.15
2018-01-04T20:49:42.539Z,1.30
2018-01-04T20:52:10.109Z,1.00
2018-01-04T20:54:42.052Z,1.58
2018-01-04T20:57:09.574Z,0.90
2018-01-04T20:59:37.879Z,1.08
2018-01-04T21:02:05.385Z,0.77
2018-01-04T21:04:32.936Z,1.77
2018-01-04T21:07:00.466Z,0.65
2018-01-04T21:09:28.012Z,0.90
2018-01-04T21:11:56.280Z,0.68
2018-01-04T21:14:24.577Z,0.60
2018-01-04T21:16:54.849Z,0.80
2018-01-04T21:19:25.454Z,0.60
2018-01-04T21:21:52.944Z,3.83
2018-01-04T21:24:23.414Z,1.35
2018-01-04T21:26:51.712Z,1.20
2018-01-04T21:29:19.345Z,1.35
2018-01-04T21:31:47.641Z,2.08
2018-01-04T21:34:15.677Z,3.33
2018-01-04T21:36:43.199Z,3.00
2018-01-04T21:39:10.720Z,7.70
2018-01-04T21:41:39.826Z,4.60
2018-01-04T21:44:07.364Z,3.70
2018-01-04T21:46:36.490Z,4.90
2018-01-04T21:49:04.870Z,9.05
2018-01-04T21:51:33.145Z,7.45
2018-01-04T21:54:01.474Z,9.80
2018-01-04T21:56:29.321Z,4.95
2018-01-04T21:58:58.539Z,9.10
2018-01-04T22:01:26.066Z,11.15
2018-01-04T22:03:53.573Z,10.52
2018-01-04T22:06:24.273Z,7.18
2018-01-04T22:08:52.838Z,17.73
2018-01-04T22:11:20.357Z,9.48
2018-01-04T22:13:48.653Z,15.18
2018-01-04T22:16:16.989Z,11.98
2018-01-04T22:18:46.719Z,13.52
2018-01-04T22:21:17.085Z,11.07
2018-01-04T22:23:44.679Z,16.58
2018-01-04T22:26:12.419Z,19.73
2018-01-04T22:28:39.950Z,12.57
2018-01-04T22:31:08.302Z,15.15
2018-01-04T22:33:36.365Z,12.68
2018-01-04T22:36:05.216Z,18.05
2018-01-04T22:38:33.474Z,16.00
2018-01-04T22:41:01.051Z,14.90
2018-01-04T22:43:30.749Z,17.58
2018-01-04T22:45:58.276Z,20.27
2018-01-04T22:48:25.813Z,8.85
2018-01-04T22:50:53.341Z,18.87
2018-01-04T22:53:20.849Z,19.02
2018-01-04T22:55:48.369Z,12.73
2018-01-04T22:58:16.925Z,12.95
2018-01-04T23:00:48.151Z,10.70
2018-01-04T23:03:15.659Z,22.65
2018-01-04T23:05:43.221Z,12.30
2018-01-04T23:08:10.739Z,12.77
2018-01-04T23:10:38.234Z,21.02
2018-01-04T23:13:05.753Z,9.60
2018-01-04T23:15:33.272Z,11.48
2018-01-04T23:18:00.795Z,22.75
2018-01-04T23:20:29.071Z,13.18
2018-01-04T23:22:56.598Z,10.05
2018-01-04T23:25:24.109Z,15.70
2018-01-04T23:27:51.621Z,19.67
2018-01-04T23:30:19.140Z,10.20
2018-01-04T23:32:46.639Z,9.13
2018-01-04T23:35:14.180Z,21.17
2018-01-04T23:37:41.694Z,15.65
2018-01-04T23:40:09.298Z,12.32
2018-01-04T23:42:36.800Z,16.55
2018-01-04T23:45:05.074Z,16.92
2018-01-04T23:47:33.364Z,14.50
2018-01-04T23:50:01.638Z,13.40
2018-01-04T23:52:29.935Z,11.85
2018-01-04T23:54:57.437Z,16.37
2018-01-04T23:57:24.952Z,15.80
2018-01-04T23:59:52.569Z,18.52
